createdAt,value
2022-10-22T00:04:35.395Z,0
2022-10-22T00:09:31.554Z,0
2022-10-22T00:14:31.549Z,0
2022-10-22T00:24:32.611Z,0
2022-10-22T00:29:36.668Z,0
2022-10-22T00:35:16.704Z,0
2022-10-22T00:39:31.969Z,0
2022-10-22T00:44:31.717Z,0
2022-10-22T00:49:31.947Z,0
2022-10-22T00:54:31.697Z,0
2022-10-22T00:59:31.608Z,0
2022-10-22T01:04:31.570Z,0
2022-10-22T01:09:31.531Z,0
2022-10-22T01:14:31.642Z,0
2022-10-22T01:19:33.243Z,0
2022-10-22T01:24:31.539Z,0
2022-10-22T01:29:31.576Z,0
2022-10-22T01:34:31.571Z,0
2022-10-22T01:39:31.572Z,0
2022-10-22T01:44:31.675Z,0
2022-10-22T01:49:31.767Z,0
2022-10-22T01:54:31.582Z,0
2022-10-22T01:59:31.522Z,0
2022-10-22T02:04:31.567Z,0
2022-10-22T02:09:31.561Z,0
2022-10-22T02:14:31.612Z,0
2022-10-22T02:19:31.602Z,0
2022-10-22T02:24:31.582Z,0
2022-10-22T02:29:31.561Z,0
2022-10-22T02:34:31.609Z,0
2022-10-22T02:39:31.644Z,0
2022-10-22T02:44:31.615Z,0
2022-10-22T02:49:31.579Z,0
2022-10-22T02:54:31.570Z,0
2022-10-22T02:59:31.578Z,0
2022-10-22T03:04:31.554Z,0
2022-10-22T03:09:31.583Z,0
2022-10-22T03:14:31.655Z,0
2022-10-22T03:19:31.581Z,0
2022-10-22T03:24:31.755Z,0
2022-10-22T03:29:31.606Z,0
2022-10-22T03:34:31.626Z,0
2022-10-22T03:39:31.656Z,0
2022-10-22T03:44:31.633Z,0
2022-10-22T03:49:31.597Z,0
2022-10-22T03:54:31.627Z,0
2022-10-22T03:59:31.589Z,0
2022-10-22T04:04:31.663Z,0
2022-10-22T04:09:31.625Z,0
2022-10-22T04:14:31.693Z,0
2022-10-22T04:19:31.614Z,0
2022-10-22T04:24:31.591Z,0
2022-10-22T04:29:31.635Z,0
2022-10-22T04:34:31.642Z,0
2022-10-22T04:39:31.583Z,0
2022-10-22T04:44:31.645Z,0
2022-10-22T04:49:31.597Z,0
2022-10-22T04:54:34.641Z,0
2022-10-22T04:59:31.581Z,0
2022-10-22T05:04:31.617Z,0
2022-10-22T05:09:31.625Z,0
2022-10-22T05:14:31.597Z,0
2022-10-22T05:19:31.628Z,0
2022-10-22T05:24:31.593Z,0
2022-10-22T05:29:31.646Z,0
2022-10-22T05:34:31.660Z,0
2022-10-22T05:39:31.612Z,0
2022-10-22T05:44:31.629Z,0
2022-10-22T05:49:31.642Z,0
2022-10-22T05:54:31.611Z,0
2022-10-22T05:59:31.740Z,0
2022-10-22T06:04:31.630Z,0
2022-10-22T06:09:31.641Z,0
2022-10-22T06:14:31.625Z,0
2022-10-22T06:19:31.611Z,265
2022-10-22T06:24:31.596Z,268
2022-10-22T06:29:31.701Z,268
2022-10-22T06:34:31.612Z,266
2022-10-22T06:39:31.708Z,0
2022-10-22T06:44:31.651Z,270
2022-10-22T06:49:31.675Z,276
2022-10-22T06:54:31.768Z,282
2022-10-22T06:59:31.622Z,289
2022-10-22T07:04:31.699Z,289
2022-10-22T07:09:31.636Z,288
2022-10-22T07:14:31.663Z,288
2022-10-22T07:19:31.608Z,290
2022-10-22T07:24:31.715Z,298
2022-10-22T07:29:31.650Z,312
2022-10-22T07:34:31.639Z,319
2022-10-22T07:39:31.672Z,328
2022-10-22T07:44:31.661Z,361
2022-10-22T07:49:31.632Z,395
2022-10-22T07:54:31.627Z,445
2022-10-22T07:59:31.719Z,408
2022-10-22T08:04:31.689Z,584
2022-10-22T08:09:31.682Z,768
2022-10-22T08:14:31.682Z,625
2022-10-22T08:19:31.653Z,613
2022-10-22T08:24:31.734Z,742
2022-10-22T08:29:31.735Z,416
2022-10-22T08:34:31.763Z,382
2022-10-22T08:39:31.744Z,455
2022-10-22T08:44:31.764Z,400
2022-10-22T08:49:31.808Z,410
2022-10-22T08:54:31.752Z,405
2022-10-22T08:59:31.888Z,416
2022-10-22T09:04:31.711Z,437
2022-10-22T09:09:31.723Z,595
2022-10-22T09:14:31.704Z,1155
2022-10-22T09:19:31.687Z,1508
2022-10-22T09:24:34.722Z,1379
2022-10-22T09:29:31.807Z,1675
2022-10-22T09:34:31.649Z,1922
2022-10-22T09:39:31.615Z,1613
2022-10-22T09:44:31.615Z,1025
2022-10-22T09:49:31.678Z,397
2022-10-22T09:54:31.631Z,411
2022-10-22T09:59:31.668Z,422
2022-10-22T10:04:31.652Z,397
2022-10-22T10:09:31.631Z,436
2022-10-22T10:14:31.703Z,357
2022-10-22T10:19:31.707Z,349
2022-10-22T10:24:31.636Z,369
2022-10-22T10:29:31.683Z,330
2022-10-22T10:34:31.801Z,365
2022-10-22T10:39:31.646Z,344
2022-10-22T10:44:31.693Z,322
2022-10-22T10:49:31.631Z,350
2022-10-22T10:54:36.016Z,372
2022-10-22T10:59:31.677Z,373
2022-10-22T11:04:31.715Z,365
2022-10-22T11:09:31.682Z,367
2022-10-22T11:14:31.711Z,391
2022-10-22T11:19:50.032Z,385
2022-10-22T11:24:31.751Z,353
2022-10-22T11:29:35.032Z,347
2022-10-22T11:34:34.810Z,309
2022-10-22T11:39:31.726Z,329
2022-10-22T11:44:31.760Z,344
2022-10-22T11:49:31.687Z,341
2022-10-22T11:54:31.725Z,326
2022-10-22T11:59:31.722Z,337
2022-10-22T12:04:31.697Z,317
2022-10-22T12:09:31.746Z,319
2022-10-22T12:14:31.926Z,308
2022-10-22T12:19:31.687Z,337
2022-10-22T12:24:31.750Z,342
2022-10-22T12:29:31.683Z,327
2022-10-22T12:34:31.711Z,320
2022-10-22T12:39:31.782Z,316
2022-10-22T12:44:31.830Z,311
2022-10-22T12:49:31.683Z,303
2022-10-22T12:54:31.799Z,303
2022-10-22T12:59:31.680Z,291
2022-10-22T13:04:31.763Z,280
2022-10-22T13:09:36.355Z,305
2022-10-22T13:14:31.835Z,291
2022-10-22T13:19:31.688Z,286
2022-10-22T13:24:31.836Z,283
2022-10-22T13:29:31.762Z,302
2022-10-22T13:34:31.818Z,311
2022-10-22T13:39:31.791Z,286
2022-10-22T13:44:31.761Z,285
2022-10-22T13:49:31.706Z,283
2022-10-22T13:54:31.680Z,297
2022-10-22T13:59:31.795Z,298
2022-10-22T14:04:31.843Z,295
2022-10-22T14:09:31.776Z,292
2022-10-22T14:14:31.750Z,290
2022-10-22T14:19:31.667Z,288
2022-10-22T14:24:31.694Z,288
2022-10-22T14:29:31.737Z,285
2022-10-22T14:34:31.717Z,284
2022-10-22T14:39:31.784Z,285
2022-10-22T14:44:31.731Z,283
2022-10-22T14:49:31.760Z,284
2022-10-22T14:54:31.762Z,282
2022-10-22T14:59:31.793Z,280
2022-10-22T15:04:31.749Z,277
2022-10-22T15:09:31.752Z,277
2022-10-22T15:14:31.792Z,274
2022-10-22T15:19:31.762Z,272
2022-10-22T15:24:31.779Z,270
2022-10-22T15:29:31.688Z,270
2022-10-22T15:34:31.752Z,270
2022-10-22T15:39:31.745Z,270
2022-10-22T15:44:31.761Z,268
2022-10-22T15:49:31.711Z,265
2022-10-22T15:54:31.745Z,0
2022-10-22T15:59:31.766Z,266
2022-10-22T16:04:31.741Z,0
2022-10-22T16:09:31.750Z,0
2022-10-22T16:14:31.711Z,0
2022-10-22T16:19:31.756Z,0
2022-10-22T16:24:31.799Z,0
2022-10-22T16:29:31.814Z,0
2022-10-22T16:34:31.783Z,0
2022-10-22T16:39:31.790Z,0
2022-10-22T16:44:31.871Z,0
2022-10-22T16:49:31.778Z,0
2022-10-22T16:54:31.733Z,0
2022-10-22T16:59:31.780Z,0
2022-10-22T17:04:31.798Z,0
2022-10-22T17:09:31.750Z,0
2022-10-22T17:14:31.802Z,0
2022-10-22T17:19:31.721Z,0
2022-10-22T17:24:31.764Z,0
2022-10-22T17:29:31.789Z,0
2022-10-22T17:34:31.768Z,0
2022-10-22T17:39:31.831Z,0
2022-10-22T17:44:31.747Z,0
2022-10-22T17:49:31.853Z,0
2022-10-22T17:54:31.758Z,0
2022-10-22T17:59:31.798Z,0
2022-10-22T18:04:31.748Z,0
2022-10-22T18:09:31.809Z,0
2022-10-22T18:14:31.759Z,0
2022-10-22T18:19:32.218Z,0
2022-10-22T18:24:31.810Z,0
2022-10-22T18:29:31.748Z,0
2022-10-22T18:34:31.787Z,0
2022-10-22T18:39:31.797Z,0
2022-10-22T18:44:31.815Z,0
2022-10-22T18:49:31.868Z,0
2022-10-22T18:54:31.768Z,0
2022-10-22T18:59:31.883Z,0
2022-10-22T19:04:31.759Z,0
2022-10-22T19:09:31.768Z,0
2022-10-22T19:14:31.781Z,0
2022-10-22T19:19:31.770Z,0
2022-10-22T19:24:31.900Z,0
2022-10-22T19:29:31.855Z,0
2022-10-22T19:34:31.787Z,0
2022-10-22T19:39:31.787Z,0
2022-10-22T19:44:31.790Z,0
2022-10-22T19:49:31.782Z,0
2022-10-22T19:54:31.773Z,0
2022-10-22T19:59:32.814Z,0
2022-10-22T20:04:31.808Z,0
2022-10-22T20:09:31.773Z,0
2022-10-22T20:14:31.908Z,0
2022-10-22T20:19:31.798Z,0
2022-10-22T20:24:31.849Z,0
2022-10-22T20:29:31.795Z,0
2022-10-22T20:34:31.805Z,0
2022-10-22T20:39:31.742Z,0
2022-10-22T20:44:31.797Z,0
2022-10-22T20:49:31.808Z,0
2022-10-22T20:54:31.840Z,0
2022-10-22T20:59:31.757Z,0
2022-10-22T21:04:31.802Z,0
2022-10-22T21:09:31.787Z,0
2022-10-22T21:14:31.806Z,0
2022-10-22T21:19:31.834Z,0
2022-10-22T21:24:31.845Z,0
2022-10-22T21:29:31.849Z,0
2022-10-22T21:34:36.808Z,0
2022-10-22T21:39:31.811Z,0
2022-10-22T21:44:31.792Z,0
2022-10-22T21:49:31.860Z,0
2022-10-22T21:54:31.834Z,0
2022-10-22T21:59:31.824Z,0
2022-10-22T22:04:31.797Z,0
2022-10-22T22:09:31.783Z,0
2022-10-22T22:14:31.934Z,0
2022-10-22T22:19:31.901Z,0
2022-10-22T22:24:31.879Z,0
2022-10-22T22:29:31.914Z,0
2022-10-22T22:34:31.884Z,0
2022-10-22T22:39:31.843Z,0
2022-10-22T22:44:31.821Z,0
2022-10-22T22:49:31.846Z,0
2022-10-22T22:54:31.840Z,0
2022-10-22T22:59:31.842Z,0
2022-10-22T23:04:31.797Z,0
2022-10-22T23:09:31.794Z,0
2022-10-22T23:14:31.840Z,0
2022-10-22T23:19:31.872Z,0
2022-10-22T23:24:31.879Z,0
2022-10-22T23:29:31.891Z,0
2022-10-22T23:34:31.821Z,0
2022-10-22T23:39:31.839Z,0
2022-10-22T23:44:31.820Z,0
2022-10-22T23:49:31.813Z,0
2022-10-22T23:54:31.832Z,0
2022-10-22T23:59:31.814Z,0
